sensor_id;sensor_type;location;lat;lon;timestamp;P1;durP1;ratioP1;P2;durP2;ratioP2
11582;SDS011;34299;50.820;4.548;2023-05-29T00:01:05;5.67;;;3.63;;
11582;SDS011;34299;50.820;4.548;2023-05-29T00:03:34;6.30;;;3.50;;
11582;SDS011;34299;50.820;4.548;2023-05-29T00:06:01;8.07;;;3.80;;
11582;SDS011;34299;50.820;4.548;2023-05-29T00:08:29;9.57;;;3.63;;
11582;SDS011;34299;50.820;4.548;2023-05-29T00:10:56;6.20;;;3.83;;
11582;SDS011;34299;50.820;4.548;2023-05-29T00:13:23;8.23;;;3.47;;
11582;SDS011;34299;50.820;4.548;2023-05-29T00:15:50;6.10;;;3.10;;
11582;SDS011;34299;50.820;4.548;2023-05-29T00:18:19;9.47;;;4.00;;
11582;SDS011;34299;50.820;4.548;2023-05-29T00:20:46;10.47;;;3.80;;
11582;SDS011;34299;50.820;4.548;2023-05-29T00:23:13;6.77;;;4.00;;
11582;SDS011;34299;50.820;4.548;2023-05-29T00:25:41;6.63;;;4.07;;
11582;SDS011;34299;50.820;4.548;2023-05-29T00:28:09;11.57;;;3.97;;
11582;SDS011;34299;50.820;4.548;2023-05-29T00:30:37;7.53;;;4.03;;
11582;SDS011;34299;50.820;4.548;2023-05-29T00:33:04;6.30;;;3.73;;
11582;SDS011;34299;50.820;4.548;2023-05-29T00:35:33;5.90;;;2.87;;
11582;SDS011;34299;50.820;4.548;2023-05-29T00:38:00;6.10;;;3.30;;
11582;SDS011;34299;50.820;4.548;2023-05-29T00:40:28;7.43;;;3.63;;
11582;SDS011;34299;50.820;4.548;2023-05-29T00:42:55;4.33;;;3.00;;
11582;SDS011;34299;50.820;4.548;2023-05-29T00:45:22;7.73;;;3.27;;
11582;SDS011;34299;50.820;4.548;2023-05-29T00:47:51;11.03;;;4.27;;
11582;SDS011;34299;50.820;4.548;2023-05-29T00:50:20;11.77;;;4.87;;
11582;SDS011;34299;50.820;4.548;2023-05-29T00:52:50;5.83;;;2.53;;
11582;SDS011;34299;50.820;4.548;2023-05-29T00:55:18;7.93;;;4.10;;
11582;SDS011;34299;50.820;4.548;2023-05-29T00:57:45;7.13;;;4.67;;
11582;SDS011;34299;50.820;4.548;2023-05-29T01:00:13;7.07;;;4.43;;
11582;SDS011;34299;50.820;4.548;2023-05-29T01:02:41;8.10;;;3.73;;
11582;SDS011;34299;50.820;4.548;2023-05-29T01:05:09;7.27;;;3.60;;
11582;SDS011;34299;50.820;4.548;2023-05-29T01:07:37;4.90;;;3.30;;
11582;SDS011;34299;50.820;4.548;2023-05-29T01:10:06;16.30;;;4.10;;
11582;SDS011;34299;50.820;4.548;2023-05-29T01:12:36;6.57;;;3.83;;
11582;SDS011;34299;50.820;4.548;2023-05-29T01:15:09;7.57;;;4.23;;
11582;SDS011;34299;50.820;4.548;2023-05-29T01:17:41;5.10;;;3.17;;
11582;SDS011;34299;50.820;4.548;2023-05-29T01:20:17;8.57;;;3.73;;
11582;SDS011;34299;50.820;4.548;2023-05-29T01:22:54;7.23;;;3.73;;
11582;SDS011;34299;50.820;4.548;2023-05-29T01:25:28;8.33;;;3.93;;
11582;SDS011;34299;50.820;4.548;2023-05-29T01:27:58;6.30;;;3.20;;
11582;SDS011;34299;50.820;4.548;2023-05-29T01:30:28;5.83;;;4.37;;
11582;SDS011;34299;50.820;4.548;2023-05-29T01:32:55;8.33;;;4.30;;
11582;SDS011;34299;50.820;4.548;2023-05-29T01:35:22;7.17;;;4.13;;
11582;SDS011;34299;50.820;4.548;2023-05-29T01:37:49;8.23;;;3.77;;
11582;SDS011;34299;50.820;4.548;2023-05-29T01:40:17;4.53;;;3.40;;
11582;SDS011;34299;50.820;4.548;2023-05-29T01:42:44;7.10;;;4.03;;
11582;SDS011;34299;50.820;4.548;2023-05-29T01:45:13;9.77;;;4.63;;
11582;SDS011;34299;50.820;4.548;2023-05-29T01:47:42;8.63;;;4.97;;
11582;SDS011;34299;50.820;4.548;2023-05-29T01:50:09;8.83;;;5.47;;
11582;SDS011;34299;50.820;4.548;2023-05-29T01:52:37;10.50;;;5.33;;
11582;SDS011;34299;50.820;4.548;2023-05-29T01:55:05;10.27;;;5.47;;
11582;SDS011;34299;50.820;4.548;2023-05-29T01:57:33;9.97;;;5.97;;
11582;SDS011;34299;50.820;4.548;2023-05-29T02:00:00;11.03;;;5.03;;
11582;SDS011;34299;50.820;4.548;2023-05-29T02:02:36;11.97;;;5.57;;
11582;SDS011;34299;50.820;4.548;2023-05-29T02:05:04;9.53;;;5.87;;
11582;SDS011;34299;50.820;4.548;2023-05-29T02:07:31;11.03;;;5.23;;
11582;SDS011;34299;50.820;4.548;2023-05-29T02:09:58;9.53;;;4.97;;
11582;SDS011;34299;50.820;4.548;2023-05-29T02:12:26;11.37;;;6.23;;
11582;SDS011;34299;50.820;4.548;2023-05-29T02:14:53;11.73;;;6.20;;
11582;SDS011;34299;50.820;4.548;2023-05-29T02:17:21;13.43;;;6.00;;
11582;SDS011;34299;50.820;4.548;2023-05-29T02:19:50;10.77;;;6.13;;
11582;SDS011;34299;50.820;4.548;2023-05-29T02:22:18;9.43;;;6.30;;
11582;SDS011;34299;50.820;4.548;2023-05-29T02:24:45;11.17;;;5.20;;
11582;SDS011;34299;50.820;4.548;2023-05-29T02:27:12;9.27;;;5.70;;
11582;SDS011;34299;50.820;4.548;2023-05-29T02:29:39;7.77;;;3.90;;
11582;SDS011;34299;50.820;4.548;2023-05-29T02:32:07;11.43;;;4.23;;
11582;SDS011;34299;50.820;4.548;2023-05-29T02:34:34;10.37;;;4.47;;
11582;SDS011;34299;50.820;4.548;2023-05-29T02:37:02;5.50;;;3.40;;
11582;SDS011;34299;50.820;4.548;2023-05-29T02:39:30;7.17;;;4.40;;
11582;SDS011;34299;50.820;4.548;2023-05-29T02:41:57;10.87;;;4.77;;
11582;SDS011;34299;50.820;4.548;2023-05-29T02:44:24;14.00;;;4.40;;
11582;SDS011;34299;50.820;4.548;2023-05-29T02:46:51;9.27;;;4.00;;
11582;SDS011;34299;50.820;4.548;2023-05-29T02:49:18;6.23;;;3.87;;
11582;SDS011;34299;50.820;4.548;2023-05-29T02:51:46;10.00;;;4.10;;
11582;SDS011;34299;50.820;4.548;2023-05-29T02:54:14;12.13;;;3.87;;
11582;SDS011;34299;50.820;4.548;2023-05-29T02:56:41;7.10;;;3.77;;
11582;SDS011;34299;50.820;4.548;2023-05-29T02:59:08;13.10;;;3.70;;
11582;SDS011;34299;50.820;4.548;2023-05-29T03:01:36;10.13;;;2.50;;
11582;SDS011;34299;50.820;4.548;2023-05-29T03:04:03;11.23;;;4.27;;
11582;SDS011;34299;50.820;4.548;2023-05-29T03:06:30;6.27;;;3.23;;
11582;SDS011;34299;50.820;4.548;2023-05-29T03:08:57;3.40;;;2.57;;
11582;SDS011;34299;50.820;4.548;2023-05-29T03:11:26;7.70;;;3.27;;
11582;SDS011;34299;50.820;4.548;2023-05-29T03:13:53;8.93;;;3.47;;
11582;SDS011;34299;50.820;4.548;2023-05-29T03:16:21;6.03;;;2.97;;
11582;SDS011;34299;50.820;4.548;2023-05-29T03:18:48;8.47;;;2.83;;
11582;SDS011;34299;50.820;4.548;2023-05-29T03:21:15;11.10;;;3.17;;
11582;SDS011;34299;50.820;4.548;2023-05-29T03:23:42;5.67;;;2.50;;
11582;SDS011;34299;50.820;4.548;2023-05-29T03:26:10;9.73;;;2.87;;
11582;SDS011;34299;50.820;4.548;2023-05-29T03:28:39;4.73;;;2.30;;
11582;SDS011;34299;50.820;4.548;2023-05-29T03:31:06;4.17;;;3.17;;
11582;SDS011;34299;50.820;4.548;2023-05-29T03:33:35;5.50;;;2.27;;
11582;SDS011;34299;50.820;4.548;2023-05-29T03:36:02;9.03;;;3.93;;
11582;SDS011;34299;50.820;4.548;2023-05-29T03:38:29;10.97;;;4.17;;
11582;SDS011;34299;50.820;4.548;2023-05-29T03:40:57;7.27;;;3.20;;
11582;SDS011;34299;50.820;4.548;2023-05-29T03:43:24;7.10;;;3.50;;
11582;SDS011;34299;50.820;4.548;2023-05-29T03:45:52;9.60;;;3.17;;
11582;SDS011;34299;50.820;4.548;2023-05-29T03:48:19;12.47;;;3.67;;
11582;SDS011;34299;50.820;4.548;2023-05-29T03:50:47;12.87;;;4.13;;
11582;SDS011;34299;50.820;4.548;2023-05-29T03:53:14;7.80;;;3.90;;
11582;SDS011;34299;50.820;4.548;2023-05-29T03:55:41;6.70;;;3.43;;
11582;SDS011;34299;50.820;4.548;2023-05-29T03:58:08;8.67;;;3.30;;
11582;SDS011;34299;50.820;4.548;2023-05-29T04:00:37;6.60;;;3.27;;
11582;SDS011;34299;50.820;4.548;2023-05-29T04:03:06;10.27;;;3.77;;
11582;SDS011;34299;50.820;4.548;2023-05-29T04:05:33;6.77;;;3.10;;
11582;SDS011;34299;50.820;4.548;2023-05-29T04:08:00;8.57;;;3.23;;
11582;SDS011;34299;50.820;4.548;2023-05-29T04:10:29;13.43;;;3.57;;
11582;SDS011;34299;50.820;4.548;2023-05-29T04:12:59;8.57;;;2.73;;
11582;SDS011;34299;50.820;4.548;2023-05-29T04:15:26;11.03;;;3.23;;
11582;SDS011;34299;50.820;4.548;2023-05-29T04:17:53;5.50;;;2.20;;
11582;SDS011;34299;50.820;4.548;2023-05-29T04:20:22;6.83;;;2.73;;
11582;SDS011;34299;50.820;4.548;2023-05-29T04:22:49;2.87;;;1.90;;
11582;SDS011;34299;50.820;4.548;2023-05-29T04:25:17;7.17;;;2.00;;
11582;SDS011;34299;50.820;4.548;2023-05-29T04:27:44;5.07;;;2.60;;
11582;SDS011;34299;50.820;4.548;2023-05-29T04:30:14;5.60;;;2.00;;
11582;SDS011;34299;50.820;4.548;2023-05-29T04:32:42;5.40;;;2.67;;
11582;SDS011;34299;50.820;4.548;2023-05-29T04:35:09;6.00;;;2.50;;
11582;SDS011;34299;50.820;4.548;2023-05-29T04:37:37;6.10;;;2.40;;
11582;SDS011;34299;50.820;4.548;2023-05-29T04:40:05;12.77;;;2.13;;
11582;SDS011;34299;50.820;4.548;2023-05-29T04:42:34;10.23;;;2.20;;
11582;SDS011;34299;50.820;4.548;2023-05-29T04:45:01;4.50;;;1.73;;
11582;SDS011;34299;50.820;4.548;2023-05-29T04:47:30;5.90;;;3.13;;
11582;SDS011;34299;50.820;4.548;2023-05-29T04:49:58;4.93;;;2.53;;
11582;SDS011;34299;50.820;4.548;2023-05-29T04:52:25;4.77;;;1.77;;
11582;SDS011;34299;50.820;4.548;2023-05-29T04:54:55;7.70;;;2.30;;
11582;SDS011;34299;50.820;4.548;2023-05-29T04:57:22;6.47;;;1.97;;
11582;SDS011;34299;50.820;4.548;2023-05-29T04:59:50;7.87;;;2.07;;
11582;SDS011;34299;50.820;4.548;2023-05-29T05:02:17;9.73;;;2.57;;
11582;SDS011;34299;50.820;4.548;2023-05-29T05:04:45;5.53;;;1.67;;
11582;SDS011;34299;50.820;4.548;2023-05-29T05:07:12;6.47;;;1.53;;
11582;SDS011;34299;50.820;4.548;2023-05-29T05:09:41;3.67;;;1.80;;
11582;SDS011;34299;50.820;4.548;2023-05-29T05:12:09;6.63;;;1.90;;
11582;SDS011;34299;50.820;4.548;2023-05-29T05:14:36;10.10;;;2.73;;
11582;SDS011;34299;50.820;4.548;2023-05-29T05:17:04;5.50;;;2.30;;
11582;SDS011;34299;50.820;4.548;2023-05-29T05:19:31;10.13;;;2.10;;
11582;SDS011;34299;50.820;4.548;2023-05-29T05:21:58;6.80;;;2.27;;
11582;SDS011;34299;50.820;4.548;2023-05-29T05:24:25;9.03;;;2.63;;
11582;SDS011;34299;50.820;4.548;2023-05-29T05:26:52;5.83;;;1.77;;
11582;SDS011;34299;50.820;4.548;2023-05-29T05:29:21;5.20;;;2.00;;
11582;SDS011;34299;50.820;4.548;2023-05-29T05:31:48;4.10;;;1.70;;
11582;SDS011;34299;50.820;4.548;2023-05-29T05:34:15;5.33;;;1.87;;
11582;SDS011;34299;50.820;4.548;2023-05-29T05:36:42;7.50;;;2.00;;
11582;SDS011;34299;50.820;4.548;2023-05-29T05:39:10;4.80;;;1.63;;
11582;SDS011;34299;50.820;4.548;2023-05-29T05:41:37;7.00;;;2.40;;
11582;SDS011;34299;50.820;4.548;2023-05-29T05:44:04;4.03;;;1.70;;
11582;SDS011;34299;50.820;4.548;2023-05-29T05:46:33;11.03;;;3.20;;
11582;SDS011;34299;50.820;4.548;2023-05-29T05:49:00;4.83;;;2.03;;
11582;SDS011;34299;50.820;4.548;2023-05-29T05:51:27;4.20;;;2.17;;
11582;SDS011;34299;50.820;4.548;2023-05-29T05:53:55;6.17;;;1.70;;
11582;SDS011;34299;50.820;4.548;2023-05-29T05:56:23;9.47;;;2.50;;
11582;SDS011;34299;50.820;4.548;2023-05-29T05:58:51;7.77;;;1.90;;
11582;SDS011;34299;50.820;4.548;2023-05-29T06:01:18;6.40;;;2.27;;
11582;SDS011;34299;50.820;4.548;2023-05-29T06:03:47;10.10;;;2.47;;
11582;SDS011;34299;50.820;4.548;2023-05-29T06:06:14;7.23;;;2.00;;
11582;SDS011;34299;50.820;4.548;2023-05-29T06:08:43;10.00;;;2.00;;
11582;SDS011;34299;50.820;4.548;2023-05-29T06:11:10;10.00;;;2.00;;
11582;SDS011;34299;50.820;4.548;2023-05-29T06:13:37;6.43;;;2.07;;
11582;SDS011;34299;50.820;4.548;2023-05-29T06:16:05;4.27;;;2.10;;
11582;SDS011;34299;50.820;4.548;2023-05-29T06:18:32;3.93;;;1.83;;
11582;SDS011;34299;50.820;4.548;2023-05-29T06:21:02;5.03;;;1.93;;
11582;SDS011;34299;50.820;4.548;2023-05-29T06:23:30;5.50;;;2.57;;
11582;SDS011;34299;50.820;4.548;2023-05-29T06:25:57;10.10;;;1.97;;
11582;SDS011;34299;50.820;4.548;2023-05-29T06:28:24;7.97;;;2.50;;
11582;SDS011;34299;50.820;4.548;2023-05-29T06:30:51;8.43;;;2.50;;
11582;SDS011;34299;50.820;4.548;2023-05-29T06:33:19;8.87;;;2.20;;
11582;SDS011;34299;50.820;4.548;2023-05-29T06:35:46;8.90;;;2.40;;
11582;SDS011;34299;50.820;4.548;2023-05-29T06:38:15;4.13;;;1.83;;
11582;SDS011;34299;50.820;4.548;2023-05-29T06:40:42;5.80;;;1.83;;
11582;SDS011;34299;50.820;4.548;2023-05-29T06:43:09;5.87;;;1.93;;
11582;SDS011;34299;50.820;4.548;2023-05-29T06:45:37;7.90;;;2.73;;
11582;SDS011;34299;50.820;4.548;2023-05-29T06:48:04;11.80;;;2.33;;
11582;SDS011;34299;50.820;4.548;2023-05-29T06:50:31;6.63;;;2.37;;
11582;SDS011;34299;50.820;4.548;2023-05-29T06:52:59;9.63;;;2.50;;
11582;SDS011;34299;50.820;4.548;2023-05-29T06:55:27;9.07;;;2.23;;
11582;SDS011;34299;50.820;4.548;2023-05-29T06:57:54;5.83;;;1.80;;
11582;SDS011;34299;50.820;4.548;2023-05-29T07:00:22;6.17;;;2.37;;
11582;SDS011;34299;50.820;4.548;2023-05-29T07:02:49;8.13;;;2.73;;
11582;SDS011;34299;50.820;4.548;2023-05-29T07:05:17;28.70;;;2.77;;
11582;SDS011;34299;50.820;4.548;2023-05-29T07:07:44;7.13;;;2.63;;
11582;SDS011;34299;50.820;4.548;2023-05-29T07:10:11;3.17;;;1.70;;
11582;SDS011;34299;50.820;4.548;2023-05-29T07:12:40;7.97;;;2.27;;
11582;SDS011;34299;50.820;4.548;2023-05-29T07:15:07;4.47;;;1.57;;
11582;SDS011;34299;50.820;4.548;2023-05-29T07:17:35;9.53;;;2.40;;
11582;SDS011;34299;50.820;4.548;2023-05-29T07:20:02;9.23;;;2.00;;
11582;SDS011;34299;50.820;4.548;2023-05-29T07:22:32;2.47;;;1.80;;
11582;SDS011;34299;50.820;4.548;2023-05-29T07:25:00;7.13;;;2.17;;
11582;SDS011;34299;50.820;4.548;2023-05-29T07:27:27;5.00;;;1.93;;
11582;SDS011;34299;50.820;4.548;2023-05-29T07:29:56;8.90;;;3.07;;
11582;SDS011;34299;50.820;4.548;2023-05-29T07:32:23;5.17;;;2.43;;
11582;SDS011;34299;50.820;4.548;2023-05-29T07:34:50;2.20;;;1.50;;
11582;SDS011;34299;50.820;4.548;2023-05-29T07:37:17;9.67;;;2.70;;
11582;SDS011;34299;50.820;4.548;2023-05-29T07:39:45;7.00;;;2.10;;
11582;SDS011;34299;50.820;4.548;2023-05-29T07:42:12;8.17;;;1.93;;
11582;SDS011;34299;50.820;4.548;2023-05-29T07:44:39;5.73;;;1.90;;
11582;SDS011;34299;50.820;4.548;2023-05-29T07:47:09;6.17;;;1.93;;
11582;SDS011;34299;50.820;4.548;2023-05-29T07:49:36;4.53;;;2.00;;
11582;SDS011;34299;50.820;4.548;2023-05-29T07:52:03;5.93;;;1.90;;
11582;SDS011;34299;50.820;4.548;2023-05-29T07:54:31;5.93;;;2.67;;
11582;SDS011;34299;50.820;4.548;2023-05-29T07:56:58;6.17;;;2.20;;
11582;SDS011;34299;50.820;4.548;2023-05-29T07:59:27;6.40;;;2.50;;
11582;SDS011;34299;50.820;4.548;2023-05-29T08:01:55;5.73;;;2.10;;
11582;SDS011;34299;50.820;4.548;2023-05-29T08:04:24;5.03;;;2.23;;
11582;SDS011;34299;50.820;4.548;2023-05-29T08:06:51;2.37;;;1.77;;
11582;SDS011;34299;50.820;4.548;2023-05-29T08:09:19;3.70;;;1.90;;
11582;SDS011;34299;50.820;4.548;2023-05-29T08:11:46;5.50;;;1.90;;
11582;SDS011;34299;50.820;4.548;2023-05-29T08:14:13;7.97;;;2.13;;
11582;SDS011;34299;50.820;4.548;2023-05-29T08:16:41;5.87;;;1.53;;
11582;SDS011;34299;50.820;4.548;2023-05-29T08:19:08;2.37;;;1.77;;
11582;SDS011;34299;50.820;4.548;2023-05-29T08:21:37;7.90;;;2.23;;
11582;SDS011;34299;50.820;4.548;2023-05-29T08:24:04;4.93;;;1.80;;
11582;SDS011;34299;50.820;4.548;2023-05-29T08:26:32;4.87;;;2.00;;
11582;SDS011;34299;50.820;4.548;2023-05-29T08:28:59;8.87;;;2.53;;
11582;SDS011;34299;50.820;4.548;2023-05-29T08:31:27;8.17;;;2.57;;
11582;SDS011;34299;50.820;4.548;2023-05-29T08:33:54;9.67;;;2.27;;
11582;SDS011;34299;50.820;4.548;2023-05-29T08:36:21;9.77;;;2.13;;
11582;SDS011;34299;50.820;4.548;2023-05-29T08:38:50;7.27;;;2.07;;
11582;SDS011;34299;50.820;4.548;2023-05-29T08:41:17;8.00;;;2.17;;
11582;SDS011;34299;50.820;4.548;2023-05-29T08:43:48;7.30;;;2.70;;
11582;SDS011;34299;50.820;4.548;2023-05-29T08:46:16;9.63;;;2.87;;
11582;SDS011;34299;50.820;4.548;2023-05-29T08:48:46;7.03;;;1.93;;
11582;SDS011;34299;50.820;4.548;2023-05-29T08:51:15;6.30;;;2.03;;
11582;SDS011;34299;50.820;4.548;2023-05-29T08:53:43;3.77;;;2.30;;
11582;SDS011;34299;50.820;4.548;2023-05-29T08:56:11;6.67;;;2.30;;
11582;SDS011;34299;50.820;4.548;2023-05-29T08:58:39;5.87;;;1.87;;
11582;SDS011;34299;50.820;4.548;2023-05-29T09:01:06;6.57;;;2.80;;
11582;SDS011;34299;50.820;4.548;2023-05-29T09:03:34;5.40;;;2.00;;
11582;SDS011;34299;50.820;4.548;2023-05-29T09:06:03;8.00;;;2.63;;
11582;SDS011;34299;50.820;4.548;2023-05-29T09:08:32;8.13;;;2.00;;
11582;SDS011;34299;50.820;4.548;2023-05-29T09:10:59;10.00;;;2.70;;
11582;SDS011;34299;50.820;4.548;2023-05-29T09:13:28;6.80;;;2.80;;
11582;SDS011;34299;50.820;4.548;2023-05-29T09:15:58;6.40;;;2.13;;
11582;SDS011;34299;50.820;4.548;2023-05-29T09:18:28;4.93;;;2.50;;
11582;SDS011;34299;50.820;4.548;2023-05-29T09:20:56;7.60;;;2.47;;
11582;SDS011;34299;50.820;4.548;2023-05-29T09:23:24;8.43;;;2.67;;
11582;SDS011;34299;50.820;4.548;2023-05-29T09:25:52;8.13;;;2.43;;
11582;SDS011;34299;50.820;4.548;2023-05-29T09:28:20;5.27;;;2.10;;
11582;SDS011;34299;50.820;4.548;2023-05-29T09:30:51;7.33;;;2.50;;
11582;SDS011;34299;50.820;4.548;2023-05-29T09:33:19;4.27;;;1.83;;
11582;SDS011;34299;50.820;4.548;2023-05-29T09:35:46;5.43;;;1.73;;
11582;SDS011;34299;50.820;4.548;2023-05-29T09:38:14;6.50;;;1.87;;
11582;SDS011;34299;50.820;4.548;2023-05-29T09:40:41;7.70;;;2.20;;
11582;SDS011;34299;50.820;4.548;2023-05-29T09:43:11;3.40;;;1.50;;
11582;SDS011;34299;50.820;4.548;2023-05-29T09:45:39;5.47;;;1.60;;
11582;SDS011;34299;50.820;4.548;2023-05-29T09:48:10;6.90;;;2.60;;
11582;SDS011;34299;50.820;4.548;2023-05-29T09:50:39;8.40;;;2.67;;
11582;SDS011;34299;50.820;4.548;2023-05-29T09:53:15;7.40;;;2.50;;
11582;SDS011;34299;50.820;4.548;2023-05-29T09:55:44;7.90;;;2.23;;
11582;SDS011;34299;50.820;4.548;2023-05-29T09:58:13;9.93;;;2.23;;
11582;SDS011;34299;50.820;4.548;2023-05-29T10:00:41;6.10;;;2.17;;
11582;SDS011;34299;50.820;4.548;2023-05-29T10:03:10;8.13;;;2.73;;
11582;SDS011;34299;50.820;4.548;2023-05-29T10:05:38;7.03;;;2.60;;
11582;SDS011;34299;50.820;4.548;2023-05-29T10:08:05;7.40;;;2.40;;
11582;SDS011;34299;50.820;4.548;2023-05-29T10:10:34;10.27;;;2.00;;
11582;SDS011;34299;50.820;4.548;2023-05-29T10:13:03;6.10;;;2.07;;
11582;SDS011;34299;50.820;4.548;2023-05-29T10:15:33;6.30;;;2.10;;
11582;SDS011;34299;50.820;4.548;2023-05-29T10:18:02;6.20;;;2.00;;
11582;SDS011;34299;50.820;4.548;2023-05-29T10:20:31;8.20;;;2.70;;
11582;SDS011;34299;50.820;4.548;2023-05-29T10:23:01;9.03;;;2.20;;
11582;SDS011;34299;50.820;4.548;2023-05-29T10:25:29;9.90;;;2.27;;
11582;SDS011;34299;50.820;4.548;2023-05-29T10:27:57;7.07;;;2.60;;
11582;SDS011;34299;50.820;4.548;2023-05-29T10:30:27;7.00;;;2.50;;
11582;SDS011;34299;50.820;4.548;2023-05-29T10:33:05;6.97;;;2.30;;
11582;SDS011;34299;50.820;4.548;2023-05-29T10:35:39;8.10;;;2.30;;
11582;SDS011;34299;50.820;4.548;2023-05-29T10:38:09;5.80;;;2.20;;
11582;SDS011;34299;50.820;4.548;2023-05-29T10:40:38;9.47;;;2.50;;
11582;SDS011;34299;50.820;4.548;2023-05-29T10:43:06;4.80;;;2.00;;
11582;SDS011;34299;50.820;4.548;2023-05-29T10:45:48;7.93;;;2.10;;
11582;SDS011;34299;50.820;4.548;2023-05-29T10:48:35;6.60;;;2.27;;
11582;SDS011;34299;50.820;4.548;2023-05-29T10:51:06;5.57;;;1.90;;
11582;SDS011;34299;50.820;4.548;2023-05-29T10:53:34;8.67;;;2.30;;
11582;SDS011;34299;50.820;4.548;2023-05-29T10:56:07;5.03;;;2.40;;
11582;SDS011;34299;50.820;4.548;2023-05-29T10:58:36;5.60;;;2.10;;
11582;SDS011;34299;50.820;4.548;2023-05-29T11:01:05;4.77;;;2.17;;
11582;SDS011;34299;50.820;4.548;2023-05-29T11:03:35;5.77;;;2.17;;
11582;SDS011;34299;50.820;4.548;2023-05-29T11:06:03;10.20;;;2.57;;
11582;SDS011;34299;50.820;4.548;2023-05-29T11:08:35;6.20;;;2.10;;
11582;SDS011;34299;50.820;4.548;2023-05-29T11:11:02;7.77;;;2.10;;
11582;SDS011;34299;50.820;4.548;2023-05-29T11:13:31;5.30;;;2.27;;
11582;SDS011;34299;50.820;4.548;2023-05-29T11:16:10;8.17;;;2.17;;
11582;SDS011;34299;50.820;4.548;2023-05-29T11:18:38;7.00;;;1.80;;
11582;SDS011;34299;50.820;4.548;2023-05-29T11:21:06;4.30;;;2.03;;
11582;SDS011;34299;50.820;4.548;2023-05-29T11:23:40;6.27;;;1.97;;
11582;SDS011;34299;50.820;4.548;2023-05-29T11:26:08;3.87;;;1.87;;
11582;SDS011;34299;50.820;4.548;2023-05-29T11:28:36;6.93;;;2.00;;
11582;SDS011;34299;50.820;4.548;2023-05-29T11:31:06;5.60;;;2.07;;
11582;SDS011;34299;50.820;4.548;2023-05-29T11:33:35;4.97;;;1.90;;
11582;SDS011;34299;50.820;4.548;2023-05-29T11:36:05;3.90;;;1.70;;
11582;SDS011;34299;50.820;4.548;2023-05-29T11:38:32;3.97;;;1.90;;
11582;SDS011;34299;50.820;4.548;2023-05-29T11:41:02;6.63;;;1.90;;
11582;SDS011;34299;50.820;4.548;2023-05-29T11:43:29;6.43;;;2.33;;
11582;SDS011;34299;50.820;4.548;2023-05-29T11:45:56;8.43;;;3.77;;
11582;SDS011;34299;50.820;4.548;2023-05-29T11:48:24;6.50;;;2.90;;
11582;SDS011;34299;50.820;4.548;2023-05-29T11:50:51;3.90;;;2.00;;
11582;SDS011;34299;50.820;4.548;2023-05-29T11:53:18;5.27;;;2.30;;
11582;SDS011;34299;50.820;4.548;2023-05-29T11:55:45;2.73;;;1.83;;
11582;SDS011;34299;50.820;4.548;2023-05-29T11:58:14;5.90;;;1.90;;
11582;SDS011;34299;50.820;4.548;2023-05-29T12:00:42;3.13;;;1.60;;
11582;SDS011;34299;50.820;4.548;2023-05-29T12:03:12;8.33;;;2.33;;
11582;SDS011;34299;50.820;4.548;2023-05-29T12:05:45;7.07;;;2.80;;
11582;SDS011;34299;50.820;4.548;2023-05-29T12:08:13;3.67;;;1.93;;
11582;SDS011;34299;50.820;4.548;2023-05-29T12:10:46;6.17;;;2.00;;
11582;SDS011;34299;50.820;4.548;2023-05-29T12:13:15;4.90;;;2.67;;
11582;SDS011;34299;50.820;4.548;2023-05-29T12:15:43;5.23;;;2.23;;
11582;SDS011;34299;50.820;4.548;2023-05-29T12:18:10;4.90;;;1.90;;
11582;SDS011;34299;50.820;4.548;2023-05-29T12:20:38;7.50;;;2.00;;
11582;SDS011;34299;50.820;4.548;2023-05-29T12:23:05;4.87;;;2.03;;
11582;SDS011;34299;50.820;4.548;2023-05-29T12:25:33;7.83;;;3.03;;
11582;SDS011;34299;50.820;4.548;2023-05-29T12:28:03;6.90;;;2.40;;
11582;SDS011;34299;50.820;4.548;2023-05-29T12:30:36;5.30;;;2.20;;
11582;SDS011;34299;50.820;4.548;2023-05-29T12:33:03;3.67;;;2.10;;
11582;SDS011;34299;50.820;4.548;2023-05-29T12:35:31;6.17;;;2.50;;
11582;SDS011;34299;50.820;4.548;2023-05-29T12:37:59;7.13;;;2.47;;
11582;SDS011;34299;50.820;4.548;2023-05-29T12:40:26;8.43;;;2.90;;
11582;SDS011;34299;50.820;4.548;2023-05-29T12:42:55;3.47;;;1.80;;
11582;SDS011;34299;50.820;4.548;2023-05-29T12:45:23;12.30;;;7.63;;
11582;SDS011;34299;50.820;4.548;2023-05-29T12:47:53;8.50;;;4.17;;
11582;SDS011;34299;50.820;4.548;2023-05-29T12:50:21;9.53;;;4.23;;
11582;SDS011;34299;50.820;4.548;2023-05-29T12:52:55;5.53;;;2.37;;
11582;SDS011;34299;50.820;4.548;2023-05-29T12:55:22;3.73;;;2.40;;
11582;SDS011;34299;50.820;4.548;2023-05-29T12:57:50;5.77;;;2.33;;
11582;SDS011;34299;50.820;4.548;2023-05-29T13:00:18;5.87;;;2.10;;
11582;SDS011;34299;50.820;4.548;2023-05-29T13:02:46;4.23;;;2.10;;
11582;SDS011;34299;50.820;4.548;2023-05-29T13:05:15;4.57;;;2.00;;
11582;SDS011;34299;50.820;4.548;2023-05-29T13:07:44;6.53;;;2.13;;
11582;SDS011;34299;50.820;4.548;2023-05-29T13:10:11;6.93;;;1.97;;
11582;SDS011;34299;50.820;4.548;2023-05-29T13:12:39;4.87;;;1.80;;
11582;SDS011;34299;50.820;4.548;2023-05-29T13:15:07;5.80;;;1.97;;
11582;SDS011;34299;50.820;4.548;2023-05-29T13:17:35;4.10;;;1.70;;
11582;SDS011;34299;50.820;4.548;2023-05-29T13:20:02;4.37;;;1.97;;
11582;SDS011;34299;50.820;4.548;2023-05-29T13:22:33;5.40;;;1.90;;
11582;SDS011;34299;50.820;4.548;2023-05-29T13:25:01;8.43;;;1.93;;
11582;SDS011;34299;50.820;4.548;2023-05-29T13:27:29;2.63;;;1.67;;
11582;SDS011;34299;50.820;4.548;2023-05-29T13:29:56;3.53;;;1.70;;
11582;SDS011;34299;50.820;4.548;2023-05-29T13:32:23;3.73;;;1.87;;
11582;SDS011;34299;50.820;4.548;2023-05-29T13:34:50;3.20;;;2.00;;
11582;SDS011;34299;50.820;4.548;2023-05-29T13:37:18;7.43;;;2.23;;
11582;SDS011;34299;50.820;4.548;2023-05-29T13:39:46;4.87;;;2.13;;
11582;SDS011;34299;50.820;4.548;2023-05-29T13:42:13;7.63;;;2.10;;
11582;SDS011;34299;50.820;4.548;2023-05-29T13:44:41;12.47;;;2.37;;
11582;SDS011;34299;50.820;4.548;2023-05-29T13:47:08;5.23;;;2.00;;
11582;SDS011;34299;50.820;4.548;2023-05-29T13:49:35;3.63;;;1.73;;
11582;SDS011;34299;50.820;4.548;2023-05-29T13:52:02;4.83;;;1.90;;
11582;SDS011;34299;50.820;4.548;2023-05-29T13:54:29;5.33;;;1.90;;
11582;SDS011;34299;50.820;4.548;2023-05-29T13:57:01;5.50;;;2.40;;
11582;SDS011;34299;50.820;4.548;2023-05-29T13:59:30;5.90;;;2.13;;
11582;SDS011;34299;50.820;4.548;2023-05-29T14:01:57;6.97;;;2.23;;
11582;SDS011;34299;50.820;4.548;2023-05-29T14:04:24;8.33;;;2.40;;
11582;SDS011;34299;50.820;4.548;2023-05-29T14:06:51;6.83;;;2.00;;
11582;SDS011;34299;50.820;4.548;2023-05-29T14:09:19;5.87;;;2.17;;
11582;SDS011;34299;50.820;4.548;2023-05-29T14:11:52;4.17;;;2.00;;
11582;SDS011;34299;50.820;4.548;2023-05-29T14:14:21;6.17;;;1.83;;
11582;SDS011;34299;50.820;4.548;2023-05-29T14:16:48;4.93;;;2.30;;
11582;SDS011;34299;50.820;4.548;2023-05-29T14:19:16;9.07;;;2.20;;
11582;SDS011;34299;50.820;4.548;2023-05-29T14:21:44;6.47;;;2.37;;
11582;SDS011;34299;50.820;4.548;2023-05-29T14:24:11;7.87;;;1.87;;
11582;SDS011;34299;50.820;4.548;2023-05-29T14:26:40;3.60;;;1.80;;
11582;SDS011;34299;50.820;4.548;2023-05-29T14:29:10;4.13;;;2.13;;
11582;SDS011;34299;50.820;4.548;2023-05-29T14:31:39;5.70;;;1.90;;
11582;SDS011;34299;50.820;4.548;2023-05-29T14:34:06;6.13;;;2.17;;
11582;SDS011;34299;50.820;4.548;2023-05-29T14:36:34;6.60;;;2.13;;
11582;SDS011;34299;50.820;4.548;2023-05-29T14:39:02;4.23;;;1.97;;
11582;SDS011;34299;50.820;4.548;2023-05-29T14:41:29;8.17;;;1.93;;
11582;SDS011;34299;50.820;4.548;2023-05-29T14:43:56;6.00;;;1.93;;
11582;SDS011;34299;50.820;4.548;2023-05-29T14:46:24;6.93;;;2.47;;
11582;SDS011;34299;50.820;4.548;2023-05-29T14:48:53;7.70;;;1.83;;
11582;SDS011;34299;50.820;4.548;2023-05-29T14:51:20;4.37;;;1.83;;